sensor_id;sensor_type;location;lat;lon;timestamp;P1;durP1;ratioP1;P2;durP2;ratioP2
21513;SDS011;10918;48.102;11.636;2023-02-15T00:00:18;17.05;;;10.07;;
21513;SDS011;10918;48.102;11.636;2023-02-15T00:02:44;13.80;;;8.98;;
21513;SDS011;10918;48.102;11.636;2023-02-15T00:05:10;14.20;;;8.30;;
21513;SDS011;10918;48.102;11.636;2023-02-15T00:07:36;10.75;;;8.57;;
21513;SDS011;10918;48.102;11.636;2023-02-15T00:10:02;11.57;;;7.95;;
21513;SDS011;10918;48.102;11.636;2023-02-15T00:12:28;12.82;;;8.13;;
21513;SDS011;10918;48.102;11.636;2023-02-15T00:14:54;10.55;;;7.53;;
21513;SDS011;10918;48.102;11.636;2023-02-15T00:17:20;9.77;;;7.55;;
21513;SDS011;10918;48.102;11.636;2023-02-15T00:19:46;10.00;;;7.40;;
21513;SDS011;10918;48.102;11.636;2023-02-15T00:22:12;12.05;;;7.82;;
21513;SDS011;10918;48.102;11.636;2023-02-15T00:24:40;8.75;;;7.10;;
21513;SDS011;10918;48.102;11.636;2023-02-15T00:27:06;10.80;;;7.65;;
21513;SDS011;10918;48.102;11.636;2023-02-15T00:29:34;9.52;;;6.45;;
21513;SDS011;10918;48.102;11.636;2023-02-15T00:32:00;9.23;;;7.18;;
21513;SDS011;10918;48.102;11.636;2023-02-15T00:34:26;15.02;;;7.10;;
21513;SDS011;10918;48.102;11.636;2023-02-15T00:36:52;8.40;;;6.72;;
21513;SDS011;10918;48.102;11.636;2023-02-15T00:39:18;11.25;;;7.25;;
21513;SDS011;10918;48.102;11.636;2023-02-15T00:41:45;8.98;;;6.53;;
21513;SDS011;10918;48.102;11.636;2023-02-15T00:44:11;9.10;;;6.65;;
21513;SDS011;10918;48.102;11.636;2023-02-15T00:46:38;7.55;;;6.38;;
21513;SDS011;10918;48.102;11.636;2023-02-15T00:49:04;8.73;;;6.30;;
21513;SDS011;10918;48.102;11.636;2023-02-15T00:51:30;12.98;;;7.47;;
21513;SDS011;10918;48.102;11.636;2023-02-15T00:53:56;8.68;;;6.82;;
21513;SDS011;10918;48.102;11.636;2023-02-15T00:56:22;7.95;;;6.30;;
21513;SDS011;10918;48.102;11.636;2023-02-15T00:58:48;9.63;;;6.72;;
21513;SDS011;10918;48.102;11.636;2023-02-15T01:01:18;9.27;;;6.45;;
21513;SDS011;10918;48.102;11.636;2023-02-15T01:03:44;8.85;;;6.72;;
21513;SDS011;10918;48.102;11.636;2023-02-15T01:06:14;14.40;;;7.38;;
21513;SDS011;10918;48.102;11.636;2023-02-15T01:08:40;10.75;;;7.03;;
21513;SDS011;10918;48.102;11.636;2023-02-15T01:11:08;11.98;;;7.15;;
21513;SDS011;10918;48.102;11.636;2023-02-15T01:13:34;12.18;;;6.97;;
21513;SDS011;10918;48.102;11.636;2023-02-15T01:16:01;12.70;;;6.55;;
21513;SDS011;10918;48.102;11.636;2023-02-15T01:18:27;16.55;;;7.40;;
21513;SDS011;10918;48.102;11.636;2023-02-15T01:20:53;11.00;;;7.60;;
21513;SDS011;10918;48.102;11.636;2023-02-15T01:23:19;11.77;;;7.60;;
21513;SDS011;10918;48.102;11.636;2023-02-15T01:25:46;9.60;;;7.03;;
21513;SDS011;10918;48.102;11.636;2023-02-15T01:28:11;15.75;;;7.75;;
21513;SDS011;10918;48.102;11.636;2023-02-15T01:30:37;12.88;;;7.45;;
21513;SDS011;10918;48.102;11.636;2023-02-15T01:33:03;8.90;;;7.07;;
21513;SDS011;10918;48.102;11.636;2023-02-15T01:35:30;12.73;;;7.13;;
21513;SDS011;10918;48.102;11.636;2023-02-15T01:37:56;8.63;;;6.75;;
21513;SDS011;10918;48.102;11.636;2023-02-15T01:40:22;10.70;;;7.03;;
21513;SDS011;10918;48.102;11.636;2023-02-15T01:42:51;9.55;;;7.32;;
21513;SDS011;10918;48.102;11.636;2023-02-15T01:55:20;10.77;;;7.53;;
21513;SDS011;10918;48.102;11.636;2023-02-15T01:57:47;10.43;;;7.63;;
21513;SDS011;10918;48.102;11.636;2023-02-15T02:00:13;11.00;;;7.30;;
21513;SDS011;10918;48.102;11.636;2023-02-15T02:02:41;11.52;;;7.82;;
21513;SDS011;10918;48.102;11.636;2023-02-15T02:05:09;10.98;;;7.10;;
21513;SDS011;10918;48.102;11.636;2023-02-15T02:07:36;11.00;;;7.53;;
21513;SDS011;10918;48.102;11.636;2023-02-15T02:10:04;15.30;;;7.65;;
21513;SDS011;10918;48.102;11.636;2023-02-15T02:12:30;12.77;;;7.78;;
21513;SDS011;10918;48.102;11.636;2023-02-15T02:14:57;10.30;;;7.55;;
21513;SDS011;10918;48.102;11.636;2023-02-15T02:30:25;16.25;;;6.85;;
21513;SDS011;10918;48.102;11.636;2023-02-15T02:41:12;10.88;;;7.63;;
21513;SDS011;10918;48.102;11.636;2023-02-15T02:43:52;14.63;;;7.72;;
21513;SDS011;10918;48.102;11.636;2023-02-15T02:46:22;9.98;;;7.32;;
21513;SDS011;10918;48.102;11.636;2023-02-15T02:48:50;14.75;;;7.57;;
21513;SDS011;10918;48.102;11.636;2023-02-15T02:51:16;13.10;;;7.07;;
21513;SDS011;10918;48.102;11.636;2023-02-15T02:53:47;14.23;;;8.68;;
21513;SDS011;10918;48.102;11.636;2023-02-15T02:56:18;11.02;;;7.55;;
21513;SDS011;10918;48.102;11.636;2023-02-15T02:58:48;11.10;;;7.43;;
21513;SDS011;10918;48.102;11.636;2023-02-15T03:01:15;10.63;;;7.18;;
21513;SDS011;10918;48.102;11.636;2023-02-15T03:06:19;10.65;;;7.60;;
21513;SDS011;10918;48.102;11.636;2023-02-15T03:08:47;10.45;;;7.75;;
21513;SDS011;10918;48.102;11.636;2023-02-15T03:11:14;11.48;;;7.60;;
21513;SDS011;10918;48.102;11.636;2023-02-15T03:13:40;10.80;;;7.82;;
21513;SDS011;10918;48.102;11.636;2023-02-15T03:16:06;10.38;;;8.00;;
21513;SDS011;10918;48.102;11.636;2023-02-15T03:19:00;9.38;;;7.18;;
21513;SDS011;10918;48.102;11.636;2023-02-15T03:21:31;12.40;;;7.45;;
21513;SDS011;10918;48.102;11.636;2023-02-15T03:23:59;10.77;;;7.90;;
21513;SDS011;10918;48.102;11.636;2023-02-15T03:26:26;12.10;;;7.47;;
21513;SDS011;10918;48.102;11.636;2023-02-15T03:28:53;9.40;;;7.38;;
21513;SDS011;10918;48.102;11.636;2023-02-15T03:31:21;11.90;;;7.15;;
21513;SDS011;10918;48.102;11.636;2023-02-15T03:33:50;15.95;;;7.47;;
21513;SDS011;10918;48.102;11.636;2023-02-15T03:36:19;14.80;;;7.88;;
21513;SDS011;10918;48.102;11.636;2023-02-15T03:38:54;11.88;;;6.63;;
21513;SDS011;10918;48.102;11.636;2023-02-15T03:41:24;9.85;;;7.35;;
21513;SDS011;10918;48.102;11.636;2023-02-15T03:43:53;19.63;;;7.47;;
21513;SDS011;10918;48.102;11.636;2023-02-15T03:46:25;16.23;;;8.68;;
21513;SDS011;10918;48.102;11.636;2023-02-15T03:48:57;11.45;;;7.80;;
21513;SDS011;10918;48.102;11.636;2023-02-15T03:51:25;14.30;;;7.80;;
21513;SDS011;10918;48.102;11.636;2023-02-15T03:54:09;10.60;;;7.18;;
21513;SDS011;10918;48.102;11.636;2023-02-15T03:56:36;13.68;;;7.93;;
21513;SDS011;10918;48.102;11.636;2023-02-15T03:59:03;11.30;;;8.23;;
21513;SDS011;10918;48.102;11.636;2023-02-15T04:01:52;12.35;;;7.07;;
21513;SDS011;10918;48.102;11.636;2023-02-15T04:04:25;11.63;;;8.20;;
21513;SDS011;10918;48.102;11.636;2023-02-15T04:06:52;12.45;;;8.60;;
21513;SDS011;10918;48.102;11.636;2023-02-15T04:09:18;10.70;;;7.93;;
21513;SDS011;10918;48.102;11.636;2023-02-15T04:12:03;10.68;;;7.38;;
21513;SDS011;10918;48.102;11.636;2023-02-15T04:14:29;11.05;;;8.13;;
21513;SDS011;10918;48.102;11.636;2023-02-15T04:17:14;16.77;;;7.25;;
21513;SDS011;10918;48.102;11.636;2023-02-15T04:19:40;11.88;;;8.10;;
21513;SDS011;10918;48.102;11.636;2023-02-15T04:22:24;10.27;;;7.60;;
21513;SDS011;10918;48.102;11.636;2023-02-15T04:25:09;10.82;;;7.55;;
21513;SDS011;10918;48.102;11.636;2023-02-15T04:27:38;10.15;;;7.88;;
21513;SDS011;10918;48.102;11.636;2023-02-15T04:30:05;17.55;;;8.27;;
21513;SDS011;10918;48.102;11.636;2023-02-15T04:32:31;12.85;;;8.95;;
21513;SDS011;10918;48.102;11.636;2023-02-15T04:34:57;12.02;;;8.07;;
21513;SDS011;10918;48.102;11.636;2023-02-15T04:37:23;11.45;;;7.82;;
21513;SDS011;10918;48.102;11.636;2023-02-15T04:39:49;11.70;;;7.97;;
21513;SDS011;10918;48.102;11.636;2023-02-15T04:42:15;10.55;;;7.82;;
21513;SDS011;10918;48.102;11.636;2023-02-15T04:44:41;11.00;;;7.90;;
21513;SDS011;10918;48.102;11.636;2023-02-15T04:47:07;12.52;;;7.95;;
21513;SDS011;10918;48.102;11.636;2023-02-15T04:49:33;10.35;;;7.45;;
21513;SDS011;10918;48.102;11.636;2023-02-15T04:51:59;13.95;;;7.88;;
21513;SDS011;10918;48.102;11.636;2023-02-15T04:54:25;25.70;;;8.18;;
21513;SDS011;10918;48.102;11.636;2023-02-15T04:56:51;28.08;;;8.38;;
21513;SDS011;10918;48.102;11.636;2023-02-15T04:59:17;16.15;;;7.75;;
21513;SDS011;10918;48.102;11.636;2023-02-15T05:01:43;13.75;;;8.25;;
21513;SDS011;10918;48.102;11.636;2023-02-15T05:04:09;16.30;;;8.23;;
21513;SDS011;10918;48.102;11.636;2023-02-15T05:06:35;12.52;;;8.57;;
21513;SDS011;10918;48.102;11.636;2023-02-15T05:09:01;18.92;;;7.70;;
21513;SDS011;10918;48.102;11.636;2023-02-15T05:11:27;18.80;;;7.95;;
21513;SDS011;10918;48.102;11.636;2023-02-15T05:13:53;14.32;;;7.53;;
21513;SDS011;10918;48.102;11.636;2023-02-15T05:16:19;11.75;;;7.53;;
21513;SDS011;10918;48.102;11.636;2023-02-15T05:18:45;10.60;;;7.80;;
21513;SDS011;10918;48.102;11.636;2023-02-15T05:21:11;14.02;;;8.65;;
21513;SDS011;10918;48.102;11.636;2023-02-15T05:23:38;10.73;;;7.72;;
21513;SDS011;10918;48.102;11.636;2023-02-15T05:26:04;21.08;;;8.00;;
21513;SDS011;10918;48.102;11.636;2023-02-15T05:28:49;16.70;;;8.02;;
21513;SDS011;10918;48.102;11.636;2023-02-15T05:31:16;17.73;;;8.18;;
21513;SDS011;10918;48.102;11.636;2023-02-15T05:33:43;14.32;;;8.45;;
21513;SDS011;10918;48.102;11.636;2023-02-15T05:36:09;13.90;;;8.75;;
21513;SDS011;10918;48.102;11.636;2023-02-15T05:38:36;12.65;;;8.90;;
21513;SDS011;10918;48.102;11.636;2023-02-15T05:41:03;14.95;;;8.25;;
21513;SDS011;10918;48.102;11.636;2023-02-15T05:43:29;10.90;;;7.55;;
21513;SDS011;10918;48.102;11.636;2023-02-15T05:45:55;11.55;;;8.60;;
21513;SDS011;10918;48.102;11.636;2023-02-15T05:48:22;17.38;;;8.65;;
21513;SDS011;10918;48.102;11.636;2023-02-15T05:51:02;10.65;;;7.63;;
21513;SDS011;10918;48.102;11.636;2023-02-15T05:53:28;10.52;;;7.97;;
21513;SDS011;10918;48.102;11.636;2023-02-15T05:55:55;10.57;;;7.80;;
21513;SDS011;10918;48.102;11.636;2023-02-15T05:58:24;10.60;;;7.90;;
21513;SDS011;10918;48.102;11.636;2023-02-15T06:00:50;9.05;;;7.28;;
21513;SDS011;10918;48.102;11.636;2023-02-15T06:03:16;11.05;;;8.02;;
21513;SDS011;10918;48.102;11.636;2023-02-15T06:05:42;14.25;;;7.53;;
21513;SDS011;10918;48.102;11.636;2023-02-15T06:08:08;11.02;;;7.35;;
21513;SDS011;10918;48.102;11.636;2023-02-15T06:10:34;10.52;;;7.93;;
21513;SDS011;10918;48.102;11.636;2023-02-15T06:13:00;11.93;;;7.72;;
21513;SDS011;10918;48.102;11.636;2023-02-15T06:15:26;9.95;;;7.57;;
21513;SDS011;10918;48.102;11.636;2023-02-15T06:17:52;11.60;;;7.28;;
21513;SDS011;10918;48.102;11.636;2023-02-15T06:20:18;10.57;;;7.78;;
21513;SDS011;10918;48.102;11.636;2023-02-15T06:22:44;9.40;;;6.35;;
21513;SDS011;10918;48.102;11.636;2023-02-15T06:25:10;11.55;;;8.07;;
21513;SDS011;10918;48.102;11.636;2023-02-15T06:27:36;11.30;;;8.13;;
21513;SDS011;10918;48.102;11.636;2023-02-15T06:30:04;12.73;;;8.07;;
21513;SDS011;10918;48.102;11.636;2023-02-15T06:32:30;12.85;;;9.10;;
21513;SDS011;10918;48.102;11.636;2023-02-15T06:34:56;13.13;;;8.68;;
21513;SDS011;10918;48.102;11.636;2023-02-15T06:37:22;14.20;;;7.90;;
21513;SDS011;10918;48.102;11.636;2023-02-15T06:39:48;13.90;;;8.85;;
21513;SDS011;10918;48.102;11.636;2023-02-15T06:42:14;17.48;;;8.90;;
21513;SDS011;10918;48.102;11.636;2023-02-15T06:44:42;11.88;;;7.82;;
21513;SDS011;10918;48.102;11.636;2023-02-15T06:47:08;11.45;;;8.45;;
21513;SDS011;10918;48.102;11.636;2023-02-15T06:49:35;12.88;;;8.13;;
21513;SDS011;10918;48.102;11.636;2023-02-15T06:52:01;13.52;;;8.65;;
21513;SDS011;10918;48.102;11.636;2023-02-15T06:54:27;12.93;;;7.78;;
21513;SDS011;10918;48.102;11.636;2023-02-15T06:56:53;17.67;;;7.80;;
21513;SDS011;10918;48.102;11.636;2023-02-15T06:59:19;13.02;;;8.00;;
21513;SDS011;10918;48.102;11.636;2023-02-15T07:01:45;13.10;;;8.15;;
21513;SDS011;10918;48.102;11.636;2023-02-15T07:04:11;12.48;;;8.25;;
21513;SDS011;10918;48.102;11.636;2023-02-15T07:06:37;11.32;;;8.43;;
21513;SDS011;10918;48.102;11.636;2023-02-15T07:09:03;11.50;;;8.15;;
21513;SDS011;10918;48.102;11.636;2023-02-15T07:11:30;12.15;;;8.55;;
21513;SDS011;10918;48.102;11.636;2023-02-15T07:14:14;13.15;;;9.20;;
21513;SDS011;10918;48.102;11.636;2023-02-15T07:16:40;13.05;;;8.70;;
21513;SDS011;10918;48.102;11.636;2023-02-15T07:19:06;13.70;;;8.50;;
21513;SDS011;10918;48.102;11.636;2023-02-15T07:21:32;12.73;;;8.70;;
21513;SDS011;10918;48.102;11.636;2023-02-15T07:23:59;15.18;;;8.57;;
21513;SDS011;10918;48.102;11.636;2023-02-15T07:26:25;13.63;;;9.30;;
21513;SDS011;10918;48.102;11.636;2023-02-15T07:28:51;14.93;;;8.93;;
21513;SDS011;10918;48.102;11.636;2023-02-15T07:31:17;12.85;;;8.73;;
21513;SDS011;10918;48.102;11.636;2023-02-15T07:33:43;12.30;;;8.05;;
21513;SDS011;10918;48.102;11.636;2023-02-15T07:36:09;11.95;;;8.35;;
21513;SDS011;10918;48.102;11.636;2023-02-15T07:38:39;12.10;;;8.60;;
21513;SDS011;10918;48.102;11.636;2023-02-15T07:41:06;12.75;;;8.25;;
21513;SDS011;10918;48.102;11.636;2023-02-15T07:43:33;13.30;;;8.82;;
21513;SDS011;10918;48.102;11.636;2023-02-15T07:46:00;9.45;;;7.85;;
21513;SDS011;10918;48.102;11.636;2023-02-15T07:48:26;9.77;;;7.55;;
21513;SDS011;10918;48.102;11.636;2023-02-15T07:50:52;11.07;;;7.95;;
21513;SDS011;10918;48.102;11.636;2023-02-15T07:53:18;10.93;;;7.70;;
21513;SDS011;10918;48.102;11.636;2023-02-15T07:55:44;12.27;;;8.30;;
21513;SDS011;10918;48.102;11.636;2023-02-15T07:58:10;13.57;;;9.13;;
21513;SDS011;10918;48.102;11.636;2023-02-15T08:00:37;11.57;;;8.68;;
21513;SDS011;10918;48.102;11.636;2023-02-15T08:03:24;11.60;;;7.90;;
21513;SDS011;10918;48.102;11.636;2023-02-15T08:05:57;11.75;;;8.10;;
21513;SDS011;10918;48.102;11.636;2023-02-15T08:08:23;13.18;;;9.20;;
21513;SDS011;10918;48.102;11.636;2023-02-15T08:10:59;14.02;;;9.52;;
21513;SDS011;10918;48.102;11.636;2023-02-15T08:13:44;16.52;;;10.57;;
21513;SDS011;10918;48.102;11.636;2023-02-15T08:16:23;13.20;;;9.52;;
21513;SDS011;10918;48.102;11.636;2023-02-15T08:18:49;13.77;;;9.68;;
21513;SDS011;10918;48.102;11.636;2023-02-15T08:21:16;13.23;;;9.38;;
21513;SDS011;10918;48.102;11.636;2023-02-15T08:23:42;14.90;;;9.32;;
21513;SDS011;10918;48.102;11.636;2023-02-15T08:26:08;12.57;;;9.73;;
21513;SDS011;10918;48.102;11.636;2023-02-15T08:28:34;16.98;;;10.10;;
21513;SDS011;10918;48.102;11.636;2023-02-15T08:31:04;14.45;;;9.80;;
21513;SDS011;10918;48.102;11.636;2023-02-15T08:33:30;12.90;;;9.15;;
21513;SDS011;10918;48.102;11.636;2023-02-15T08:35:56;12.98;;;9.20;;
21513;SDS011;10918;48.102;11.636;2023-02-15T08:38:23;13.07;;;9.75;;
21513;SDS011;10918;48.102;11.636;2023-02-15T08:40:49;13.15;;;9.82;;
21513;SDS011;10918;48.102;11.636;2023-02-15T08:43:15;14.02;;;10.23;;
21513;SDS011;10918;48.102;11.636;2023-02-15T08:45:41;11.57;;;8.98;;
21513;SDS011;10918;48.102;11.636;2023-02-15T08:48:07;16.27;;;10.15;;
21513;SDS011;10918;48.102;11.636;2023-02-15T08:50:33;13.52;;;9.50;;
21513;SDS011;10918;48.102;11.636;2023-02-15T08:52:59;14.00;;;9.98;;
21513;SDS011;10918;48.102;11.636;2023-02-15T08:55:25;14.45;;;9.88;;
21513;SDS011;10918;48.102;11.636;2023-02-15T08:57:51;13.80;;;10.60;;
21513;SDS011;10918;48.102;11.636;2023-02-15T09:00:20;11.63;;;9.48;;
21513;SDS011;10918;48.102;11.636;2023-02-15T09:02:47;11.20;;;8.90;;
21513;SDS011;10918;48.102;11.636;2023-02-15T09:05:13;10.15;;;8.48;;
21513;SDS011;10918;48.102;11.636;2023-02-15T09:07:39;10.90;;;9.68;;
21513;SDS011;10918;48.102;11.636;2023-02-15T09:10:05;13.07;;;9.77;;
21513;SDS011;10918;48.102;11.636;2023-02-15T09:12:32;11.63;;;9.27;;
21513;SDS011;10918;48.102;11.636;2023-02-15T09:14:58;9.90;;;8.52;;
21513;SDS011;10918;48.102;11.636;2023-02-15T09:17:24;12.20;;;9.90;;
21513;SDS011;10918;48.102;11.636;2023-02-15T09:19:50;11.63;;;9.20;;
21513;SDS011;10918;48.102;11.636;2023-02-15T09:22:16;10.52;;;9.20;;
21513;SDS011;10918;48.102;11.636;2023-02-15T09:24:42;11.52;;;8.88;;
21513;SDS011;10918;48.102;11.636;2023-02-15T09:27:08;11.18;;;9.55;;
21513;SDS011;10918;48.102;11.636;2023-02-15T09:29:34;11.48;;;8.77;;
21513;SDS011;10918;48.102;11.636;2023-02-15T09:32:00;14.50;;;10.80;;
21513;SDS011;10918;48.102;11.636;2023-02-15T09:34:26;11.18;;;8.57;;
21513;SDS011;10918;48.102;11.636;2023-02-15T09:36:52;10.55;;;8.68;;
21513;SDS011;10918;48.102;11.636;2023-02-15T09:39:20;11.27;;;9.00;;
21513;SDS011;10918;48.102;11.636;2023-02-15T09:42:11;12.55;;;9.50;;
21513;SDS011;10918;48.102;11.636;2023-02-15T09:50:06;14.07;;;9.35;;
21513;SDS011;10918;48.102;11.636;2023-02-15T09:55:31;10.68;;;9.23;;
21513;SDS011;10918;48.102;11.636;2023-02-15T10:00:51;11.00;;;8.13;;
21513;SDS011;10918;48.102;11.636;2023-02-15T10:03:23;10.25;;;8.00;;
21513;SDS011;10918;48.102;11.636;2023-02-15T10:05:58;9.50;;;8.47;;
21513;SDS011;10918;48.102;11.636;2023-02-15T10:16:41;8.15;;;6.78;;
21513;SDS011;10918;48.102;11.636;2023-02-15T10:19:23;8.10;;;6.68;;
21513;SDS011;10918;48.102;11.636;2023-02-15T10:22:02;8.00;;;7.25;;
21513;SDS011;10918;48.102;11.636;2023-02-15T10:26:58;9.93;;;7.00;;
21513;SDS011;10918;48.102;11.636;2023-02-15T10:29:36;7.78;;;6.80;;
21513;SDS011;10918;48.102;11.636;2023-02-15T10:34:38;7.35;;;6.65;;
21513;SDS011;10918;48.102;11.636;2023-02-15T10:37:10;7.65;;;6.35;;
21513;SDS011;10918;48.102;11.636;2023-02-15T10:45:23;7.53;;;6.43;;
21513;SDS011;10918;48.102;11.636;2023-02-15T10:47:59;8.27;;;6.82;;
21513;SDS011;10918;48.102;11.636;2023-02-15T10:53:04;11.90;;;7.03;;
21513;SDS011;10918;48.102;11.636;2023-02-15T10:55:47;7.28;;;6.57;;
21513;SDS011;10918;48.102;11.636;2023-02-15T11:00:47;9.25;;;6.88;;
21513;SDS011;10918;48.102;11.636;2023-02-15T11:05:57;8.27;;;7.07;;
21513;SDS011;10918;48.102;11.636;2023-02-15T11:08:26;8.75;;;6.95;;
21513;SDS011;10918;48.102;11.636;2023-02-15T11:10:57;11.55;;;7.70;;
21513;SDS011;10918;48.102;11.636;2023-02-15T11:13:26;10.07;;;7.60;;
21513;SDS011;10918;48.102;11.636;2023-02-15T11:15:55;12.48;;;7.55;;
21513;SDS011;10918;48.102;11.636;2023-02-15T11:21:05;9.00;;;7.50;;
21513;SDS011;10918;48.102;11.636;2023-02-15T11:23:33;10.20;;;8.02;;
21513;SDS011;10918;48.102;11.636;2023-02-15T11:26:02;12.30;;;7.63;;
21513;SDS011;10918;48.102;11.636;2023-02-15T11:28:46;11.20;;;8.30;;
21513;SDS011;10918;48.102;11.636;2023-02-15T11:31:17;9.30;;;8.27;;
21513;SDS011;10918;48.102;11.636;2023-02-15T11:33:45;9.40;;;8.25;;
21513;SDS011;10918;48.102;11.636;2023-02-15T11:36:16;9.68;;;8.68;;
21513;SDS011;10918;48.102;11.636;2023-02-15T11:38:44;11.05;;;8.70;;
21513;SDS011;10918;48.102;11.636;2023-02-15T11:41:11;9.95;;;8.35;;
21513;SDS011;10918;48.102;11.636;2023-02-15T11:43:39;11.77;;;8.75;;
21513;SDS011;10918;48.102;11.636;2023-02-15T11:46:06;9.32;;;8.43;;
21513;SDS011;10918;48.102;11.636;2023-02-15T11:48:33;10.05;;;8.60;;
21513;SDS011;10918;48.102;11.636;2023-02-15T11:51:00;11.65;;;8.48;;
21513;SDS011;10918;48.102;11.636;2023-02-15T11:53:27;12.05;;;8.75;;
21513;SDS011;10918;48.102;11.636;2023-02-15T11:55:54;9.13;;;8.20;;
21513;SDS011;10918;48.102;11.636;2023-02-15T11:58:33;11.10;;;8.48;;
21513;SDS011;10918;48.102;11.636;2023-02-15T12:06:16;10.60;;;8.63;;
21513;SDS011;10918;48.102;11.636;2023-02-15T12:08:47;13.20;;;9.02;;
21513;SDS011;10918;48.102;11.636;2023-02-15T12:11:19;10.73;;;8.05;;
21513;SDS011;10918;48.102;11.636;2023-02-15T12:13:53;12.27;;;7.78;;
21513;SDS011;10918;48.102;11.636;2023-02-15T12:16:20;8.90;;;8.02;;
21513;SDS011;10918;48.102;11.636;2023-02-15T12:18:46;10.23;;;8.63;;
21513;SDS011;10918;48.102;11.636;2023-02-15T12:21:26;10.15;;;7.75;;
21513;SDS011;10918;48.102;11.636;2023-02-15T12:23:53;10.43;;;8.48;;
21513;SDS011;10918;48.102;11.636;2023-02-15T12:26:31;9.00;;;8.15;;
21513;SDS011;10918;48.102;11.636;2023-02-15T12:29:01;11.27;;;8.15;;
21513;SDS011;10918;48.102;11.636;2023-02-15T12:31:44;11.57;;;7.95;;
21513;SDS011;10918;48.102;11.636;2023-02-15T12:36:44;10.70;;;8.90;;
21513;SDS011;10918;48.102;11.636;2023-02-15T12:39:22;8.82;;;7.43;;
21513;SDS011;10918;48.102;11.636;2023-02-15T12:44:20;10.90;;;9.00;;
21513;SDS011;10918;48.102;11.636;2023-02-15T12:46:56;9.50;;;7.95;;
21513;SDS011;10918;48.102;11.636;2023-02-15T12:49:23;12.10;;;7.82;;
21513;SDS011;10918;48.102;11.636;2023-02-15T12:51:50;12.05;;;7.80;;
21513;SDS011;10918;48.102;11.636;2023-02-15T12:54:38;11.00;;;8.65;;
21513;SDS011;10918;48.102;11.636;2023-02-15T12:59:50;10.98;;;8.05;;
21513;SDS011;10918;48.102;11.636;2023-02-15T13:02:59;9.43;;;7.15;;
21513;SDS011;10918;48.102;11.636;2023-02-15T13:08:34;10.60;;;7.93;;
21513;SDS011;10918;48.102;11.636;2023-02-15T13:10:42;16.38;;;8.00;;
21513;SDS011;10918;48.102;11.636;2023-02-15T13:13:11;8.50;;;7.22;;
21513;SDS011;10918;48.102;11.636;2023-02-15T13:15:43;11.35;;;8.13;;
21513;SDS011;10918;48.102;11.636;2023-02-15T13:18:15;8.93;;;8.02;;
21513;SDS011;10918;48.102;11.636;2023-02-15T13:20:42;11.63;;;8.20;;
21513;SDS011;10918;48.102;11.636;2023-02-15T13:23:22;10.52;;;8.20;;
21513;SDS011;10918;48.102;11.636;2023-02-15T13:25:50;13.18;;;8.23;;
21513;SDS011;10918;48.102;11.636;2023-02-15T13:28:17;10.93;;;8.00;;
21513;SDS011;10918;48.102;11.636;2023-02-15T13:30:45;11.18;;;7.78;;
21513;SDS011;10918;48.102;11.636;2023-02-15T13:36:33;14.43;;;8.48;;
21513;SDS011;10918;48.102;11.636;2023-02-15T13:41:16;12.75;;;9.07;;
21513;SDS011;10918;48.102;11.636;2023-02-15T13:43:52;9.82;;;8.25;;
21513;SDS011;10918;48.102;11.636;2023-02-15T13:46:23;10.30;;;8.38;;
21513;SDS011;10918;48.102;11.636;2023-02-15T13:48:55;10.85;;;8.90;;
21513;SDS011;10918;48.102;11.636;2023-02-15T13:51:34;12.30;;;9.37;;
21513;SDS011;10918;48.102;11.636;2023-02-15T14:00:04;10.95;;;9.85;;
21513;SDS011;10918;48.102;11.636;2023-02-15T14:22:47;11.93;;;9.43;;
21513;SDS011;10918;48.102;11.636;2023-02-15T14:25:21;10.50;;;9.40;;
21513;SDS011;10918;48.102;11.636;2023-02-15T14:30:22;13.90;;;10.60;;
21513;SDS011;10918;48.102;11.636;2023-02-15T14:32:49;12.68;;;10.93;;
21513;SDS011;10918;48.102;11.636;2023-02-15T14:35:18;13.48;;;10.85;;
21513;SDS011;10918;48.102;11.636;2023-02-15T14:37:52;15.98;;;10.57;;
21513;SDS011;10918;48.102;11.636;2023-02-15T14:46:16;12.77;;;11.07;;
21513;SDS011;10918;48.102;11.636;2023-02-15T14:48:45;14.07;;;10.77;;
21513;SDS011;10918;48.102;11.636;2023-02-15T14:53:56;15.85;;;11.40;;
21513;SDS011;10918;48.102;11.636;2023-02-15T14:56:23;13.52;;;11.05;;
21513;SDS011;10918;48.102;11.636;2023-02-15T15:01:15;16.02;;;11.50;;
21513;SDS011;10918;48.102;11.636;2023-02-15T15:03:49;13.27;;;11.35;;
21513;SDS011;10918;48.102;11.636;2023-02-15T15:06:28;14.27;;;12.70;;
21513;SDS011;10918;48.102;11.636;2023-02-15T15:08:55;14.75;;;12.65;;
21513;SDS011;10918;48.102;11.636;2023-02-15T15:13:57;17.25;;;12.10;;
21513;SDS011;10918;48.102;11.636;2023-02-15T15:19:03;13.38;;;11.95;;
21513;SDS011;10918;48.102;11.636;2023-02-15T15:29:48;14.35;;;11.88;;
21513;SDS011;10918;48.102;11.636;2023-02-15T15:32:13;14.02;;;12.38;;
21513;SDS011;10918;48.102;11.636;2023-02-15T15:34:51;17.35;;;12.32;;
21513;SDS011;10918;48.102;11.636;2023-02-15T15:47:54;16.45;;;12.77;;
21513;SDS011;10918;48.102;11.636;2023-02-15T15:50:24;15.95;;;13.02;;
21513;SDS011;10918;48.102;11.636;2023-02-15T15:52:51;15.20;;;12.45;;
21513;SDS011;10918;48.102;11.636;2023-02-15T15:55:19;17.80;;;12.85;;
21513;SDS011;10918;48.102;11.636;2023-02-15T15:57:46;19.10;;;13.85;;
21513;SDS011;10918;48.102;11.636;2023-02-15T16:02:53;21.02;;;13.65;;
21513;SDS011;10918;48.102;11.636;2023-02-15T16:05:20;15.75;;;12.98;;
21513;SDS011;10918;48.102;11.636;2023-02-15T16:07:47;18.70;;;13.65;;
21513;SDS011;10918;48.102;11.636;2023-02-15T16:10:20;16.88;;;12.25;;
21513;SDS011;10918;48.102;11.636;2023-02-15T16:12:47;17.25;;;12.48;;
21513;SDS011;10918;48.102;11.636;2023-02-15T16:15:15;16.48;;;13.20;;
21513;SDS011;10918;48.102;11.636;2023-02-15T16:17:45;18.90;;;12.95;;
21513;SDS011;10918;48.102;11.636;2023-02-15T16:20:23;17.13;;;13.43;;
21513;SDS011;10918;48.102;11.636;2023-02-15T16:22:53;16.30;;;12.73;;
21513;SDS011;10918;48.102;11.636;2023-02-15T16:25:44;16.75;;;13.50;;
21513;SDS011;10918;48.102;11.636;2023-02-15T16:28:13;16.35;;;12.88;;
21513;SDS011;10918;48.102;11.636;2023-02-15T16:30:40;15.57;;;13.18;;
21513;SDS011;10918;48.102;11.636;2023-02-15T16:35:33;21.27;;;13.43;;
21513;SDS011;10918;48.102;11.636;2023-02-15T16:38:00;18.90;;;13.30;;
21513;SDS011;10918;48.102;11.636;2023-02-15T16:40:28;20.20;;;14.50;;
21513;SDS011;10918;48.102;11.636;2023-02-15T16:43:06;18.63;;;14.02;;
21513;SDS011;10918;48.102;11.636;2023-02-15T16:45:36;18.60;;;12.82;;
21513;SDS011;10918;48.102;11.636;2023-02-15T16:48:05;18.98;;;13.77;;
21513;SDS011;10918;48.102;11.636;2023-02-15T16:50:33;17.42;;;12.90;;
21513;SDS011;10918;48.102;11.636;2023-02-15T16:53:00;20.42;;;13.70;;
21513;SDS011;10918;48.102;11.636;2023-02-15T16:55:27;17.48;;;13.70;;
21513;SDS011;10918;48.102;11.636;2023-02-15T16:57:55;16.63;;;13.32;;
21513;SDS011;10918;48.102;11.636;2023-02-15T17:00:25;18.40;;;13.63;;
21513;SDS011;10918;48.102;11.636;2023-02-15T17:03:05;17.30;;;12.20;;
21513;SDS011;10918;48.102;11.636;2023-02-15T17:05:48;16.45;;;12.20;;
21513;SDS011;10918;48.102;11.636;2023-02-15T17:08:15;20.75;;;13.07;;
21513;SDS011;10918;48.102;11.636;2023-02-15T17:10:44;15.95;;;12.05;;
21513;SDS011;10918;48.102;11.636;2023-02-15T17:13:12;16.85;;;11.32;;
21513;SDS011;10918;48.102;11.636;2023-02-15T17:15:40;19.23;;;12.00;;